Home > Products > Valid Products > TAF

000
FTUS44 KAMA 252320
TAFGUY
TAF
KGUY 252320Z 2600/2624 20011KT P6SM SKC
     FM260100 19009KT P6SM SKC
     FM261600 19019G29KT P6SM FEW200=



000
FTUS44 KAMA 252320
TAFAMA
TAF
KAMA 252320Z 2600/2624 19016KT P6SM SKC
     FM260100 19010KT P6SM SKC
     FM261600 20020G30KT P6SM FEW200=



000
FTUS44 KAMA 252320
TAFDHT
TAF
KDHT 252320Z 2600/2624 21018G28KT P6SM SKC
     FM260100 20010KT P6SM SKC
     FM261600 21020G30KT P6SM FEW200=



000
FTUS44 KAMA 251132
TAFAMA
TAF
KAMA 251132Z 2512/2612 23011KT P6SM SKC
     FM251800 22016G26KT P6SM SKC
     FM260100 20012KT P6SM SCT300=



000
FTUS44 KAMA 251132
TAFDHT
TAF
KDHT 251132Z 2512/2612 28011KT P6SM SKC
     FM251800 22016G26KT P6SM SKC
     FM260200 22010KT P6SM SCT300=



000
FTUS44 KAMA 250431 AAB
TAFDHT
TAF AMD
KDHT 250431Z 2505/2524 25008KT P6SM SKC
      TEMPO 2505/2507 25015G25KT
     FM250900 29010KT P6SM SKC
     FM251800 22020G30KT P6SM SKC=



000
FTUS44 KAMA 241735
TAFAMA
TAF
KAMA 241735Z 2418/2518 18016G25KT P6SM SCT060 BKN250
     FM250300 21010KT P6SM SKC
     FM251200 24012KT P6SM SKC=



000
FTUS44 KAMA 241735
TAFDHT
TAF
KDHT 241735Z 2418/2518 20017G27KT P6SM SCT070
     FM250200 22010KT P6SM SKC
     FM251200 24010KT P6SM SKC=



000
FTUS44 KAMA 241735
TAFGUY
TAF
KGUY 241735Z 2418/2518 19016G26KT P6SM SCT060
     FM250200 20012KT P6SM SKC
     FM251200 24012KT P6SM SKC=



000
FTUS44 KAMA 241120
TAFDHT
TAF
KDHT 241120Z 2412/2512 18010KT 6SM BR SKC
     FM241500 20018G28KT P6SM SKC
     FM250200 22015KT P6SM SKC=



000
FTUS44 KAMA 241120
TAFAMA
TAF
KAMA 241120Z 2412/2512 18015KT P6SM SCT015
     FM241400 19017G27KT P6SM SCT100
     FM250400 21012KT P6SM SKC=



000
FTUS44 KAMA 241120
TAFGUY
TAF
KGUY 241120Z 2412/2512 19016KT P6SM SKC
     FM241400 21018G28KT P6SM FEW120
     FM250600 22012KT P6SM SKC=



000
FTUS44 KAMA 240525
TAFGUY
TAF
KGUY 240525Z 2406/2506 18020KT P6SM SKC
     FM241400 22020G30KT P6SM SKC=



000
FTUS44 KAMA 240525
TAFAMA
TAF
KAMA 240525Z 2406/2506 14020KT P6SM SCT020
      TEMPO 2409/2412 19020KT
     FM241200 21015G25KT P6SM SKC=



000
FTUS44 KAMA 240525
TAFDHT
TAF
KDHT 240525Z 2406/2506 18010KT P6SM SKC
     FM241500 21020G30KT P6SM SKC=



    US Dept of Commerce
    National Oceanic and Atmospheric Administration
    National Weather Service
    1325 East West Highway
    Silver Spring, MD 20910
    Page Author: NWS Internet Services Team
Disclaimer
Information Quality
Credits
Glossary
Privacy Policy
Freedom of Information Act (FOIA)
About Us
Career Opportunities